createdAt,value
2023-12-09T00:21:01.352Z,1.54
2023-12-09T00:23:27.948Z,1.53
2023-12-09T00:25:54.493Z,1.53
2023-12-09T00:28:21.470Z,1.57
2023-12-09T00:30:48.044Z,1.58
2023-12-09T00:33:14.890Z,1.58
2023-12-09T00:35:41.533Z,1.57
2023-12-09T00:38:08.127Z,1.58
2023-12-09T00:40:34.699Z,1.54
2023-12-09T00:43:01.284Z,1.57
2023-12-09T00:45:27.870Z,1.61
2023-12-09T00:47:54.652Z,1.58
2023-12-09T00:50:21.267Z,1.58
2023-12-09T00:52:47.892Z,1.59
2023-12-09T00:55:14.419Z,1.63
2023-12-09T00:57:40.906Z,1.61
2023-12-09T01:00:08.000Z,1.61
2023-12-09T01:02:34.624Z,1.61
2023-12-09T01:05:01.320Z,1.59
2023-12-09T01:07:27.917Z,1.65
2023-12-09T01:09:54.416Z,1.62
2023-12-09T01:12:21.047Z,1.61
2023-12-09T01:14:47.550Z,1.61
2023-12-09T01:17:14.109Z,1.61
2023-12-09T01:19:40.731Z,1.59
2023-12-09T01:22:07.285Z,1.59
2023-12-09T01:24:33.878Z,1.61
2023-12-09T01:27:00.398Z,1.60
2023-12-09T01:29:26.928Z,1.61
2023-12-09T01:31:53.498Z,1.63
2023-12-09T01:34:20.179Z,1.63
2023-12-09T01:36:46.905Z,1.65
2023-12-09T01:39:14.103Z,1.66
2023-12-09T01:41:40.701Z,1.67
2023-12-09T01:44:07.266Z,1.66
2023-12-09T01:46:34.973Z,1.66
2023-12-09T01:49:01.756Z,1.66
2023-12-09T01:51:29.757Z,1.66
2023-12-09T01:53:56.513Z,1.63
2023-12-09T01:56:23.318Z,1.67
2023-12-09T01:58:50.427Z,1.64
2023-12-09T02:01:17.099Z,1.65
2023-12-09T02:03:44.015Z,1.68
2023-12-09T02:06:11.039Z,1.68
2023-12-09T02:08:39.964Z,1.68
2023-12-09T02:11:24.244Z,1.65
2023-12-09T02:14:08.272Z,1.66
2023-12-09T02:16:46.857Z,1.66
2023-12-09T02:19:15.020Z,1.67
2023-12-09T02:22:07.452Z,1.66
2023-12-09T02:24:35.136Z,1.66
2023-12-09T02:27:14.616Z,1.63
2023-12-09T02:30:13.227Z,1.66
2023-12-09T02:32:41.103Z,1.69
2023-12-09T02:35:11.297Z,1.68
2023-12-09T02:37:39.267Z,1.68
2023-12-09T02:40:10.921Z,1.69
2023-12-09T02:42:41.081Z,1.69
2023-12-09T02:45:09.089Z,1.69
2023-12-09T02:47:35.747Z,1.70
2023-12-09T02:50:02.290Z,1.71
2023-12-09T02:52:29.134Z,1.70
2023-12-09T02:54:55.886Z,1.70
2023-12-09T02:57:22.498Z,1.72
2023-12-09T02:59:49.083Z,1.73
2023-12-09T03:02:15.577Z,1.71
2023-12-09T03:04:42.154Z,1.71
2023-12-09T03:07:08.734Z,1.75
2023-12-09T03:09:35.320Z,1.75
2023-12-09T03:12:02.018Z,1.71
2023-12-09T03:14:30.038Z,1.72
2023-12-09T03:16:56.603Z,1.72
2023-12-09T03:19:23.276Z,1.74
2023-12-09T03:21:49.853Z,1.79
2023-12-09T03:24:16.495Z,1.75
2023-12-09T03:26:42.992Z,1.70
2023-12-09T03:29:09.505Z,1.70
2023-12-09T03:31:41.152Z,1.69
2023-12-09T03:34:07.809Z,1.67
2023-12-09T03:36:34.412Z,1.66
2023-12-09T03:39:01.000Z,1.67
2023-12-09T03:41:27.648Z,1.67
2023-12-09T03:43:54.245Z,1.64
2023-12-09T03:46:20.739Z,1.63
2023-12-09T03:48:47.471Z,1.63
2023-12-09T03:51:14.169Z,1.67
2023-12-09T03:53:42.811Z,1.65
2023-12-09T03:56:12.527Z,1.67
2023-12-09T03:58:39.027Z,1.68
2023-12-09T04:01:05.987Z,1.68
2023-12-09T04:03:32.650Z,1.70
2023-12-09T04:05:59.789Z,1.70
2023-12-09T04:08:27.134Z,1.72
2023-12-09T04:10:53.878Z,1.72
2023-12-09T04:13:20.449Z,1.72
2023-12-09T04:15:46.987Z,1.74
2023-12-09T04:18:13.749Z,1.75
2023-12-09T04:20:40.434Z,1.76
2023-12-09T04:23:06.999Z,1.77
2023-12-09T04:25:33.577Z,1.76
2023-12-09T04:28:00.190Z,1.78
2023-12-09T04:30:26.745Z,1.77
2023-12-09T04:32:53.375Z,1.79
2023-12-09T04:35:19.955Z,1.81
2023-12-09T04:37:46.516Z,1.81
2023-12-09T04:40:15.160Z,1.81
2023-12-09T04:42:43.068Z,1.80
2023-12-09T04:45:10.060Z,1.82
2023-12-09T04:47:38.029Z,1.81
2023-12-09T04:50:05.888Z,1.82
2023-12-09T04:52:32.416Z,1.84
2023-12-09T04:54:58.954Z,1.81
2023-12-09T04:57:25.607Z,1.82
2023-12-09T04:59:52.184Z,1.83
2023-12-09T05:02:21.413Z,1.83
2023-12-09T05:04:48.086Z,1.84
2023-12-09T05:07:15.409Z,1.84
2023-12-09T05:09:42.048Z,1.85
2023-12-09T05:12:08.793Z,1.85
2023-12-09T05:14:35.396Z,1.85
2023-12-09T05:17:02.247Z,1.87
2023-12-09T05:19:29.062Z,1.88
2023-12-09T05:21:55.989Z,1.89
2023-12-09T05:24:22.637Z,1.90
2023-12-09T05:26:49.335Z,1.89
2023-12-09T05:29:16.684Z,1.91
2023-12-09T05:31:43.625Z,1.89
2023-12-09T05:34:10.329Z,1.90
2023-12-09T05:36:40.178Z,1.89
2023-12-09T05:39:07.122Z,1.88
2023-12-09T05:41:33.761Z,1.90
2023-12-09T05:44:00.387Z,1.90
2023-12-09T05:46:27.036Z,1.89
2023-12-09T05:48:53.813Z,1.90
2023-12-09T05:51:20.609Z,1.90
2023-12-09T05:53:47.169Z,1.91
2023-12-09T05:56:13.858Z,1.89
2023-12-09T05:58:40.980Z,1.91
2023-12-09T06:01:08.739Z,1.92
2023-12-09T06:03:35.392Z,1.93
2023-12-09T06:06:02.146Z,1.93
2023-12-09T06:08:28.771Z,1.93
2023-12-09T06:10:55.482Z,1.93
2023-12-09T06:13:21.994Z,1.94
2023-12-09T06:15:50.966Z,1.95
2023-12-09T06:18:17.952Z,1.94
2023-12-09T06:20:44.552Z,1.98
2023-12-09T06:23:11.109Z,1.98
2023-12-09T06:25:37.820Z,1.98
2023-12-09T06:28:04.525Z,1.99
2023-12-09T06:30:31.212Z,2.00
2023-12-09T06:32:57.915Z,2.01
2023-12-09T06:35:24.565Z,2.02
2023-12-09T06:37:51.125Z,1.99
2023-12-09T06:40:17.660Z,2.02
2023-12-09T06:42:44.218Z,2.02
2023-12-09T06:45:11.197Z,2.04
2023-12-09T06:47:37.816Z,2.04
2023-12-09T06:50:04.772Z,2.04
2023-12-09T06:52:31.381Z,2.06
2023-12-09T06:54:57.950Z,2.07
2023-12-09T06:57:24.521Z,2.08
2023-12-09T06:59:52.326Z,2.08
2023-12-09T07:02:18.911Z,2.12
2023-12-09T07:04:45.530Z,2.13
2023-12-09T07:07:18.593Z,2.11
2023-12-09T07:09:48.604Z,2.11
2023-12-09T07:12:15.168Z,2.13
2023-12-09T07:14:41.719Z,2.13
2023-12-09T07:17:08.377Z,2.14
2023-12-09T07:19:35.238Z,2.13
2023-12-09T07:22:04.512Z,2.15
2023-12-09T07:24:31.565Z,2.14
2023-12-09T07:26:58.216Z,2.15
2023-12-09T07:29:27.073Z,2.15
2023-12-09T07:31:54.749Z,2.15
2023-12-09T07:34:21.645Z,2.13
2023-12-09T07:36:48.273Z,2.13
2023-12-09T07:39:14.992Z,2.14
2023-12-09T07:41:42.700Z,2.11
2023-12-09T07:44:09.411Z,2.12
2023-12-09T07:46:36.001Z,2.11
2023-12-09T07:49:03.164Z,2.09
2023-12-09T07:51:29.806Z,2.11
2023-12-09T07:53:56.652Z,2.10
2023-12-09T07:56:23.574Z,2.09
2023-12-09T07:58:50.078Z,2.11
2023-12-09T08:01:16.766Z,2.14
2023-12-09T08:03:43.570Z,2.15
2023-12-09T08:06:10.333Z,2.19
2023-12-09T08:08:36.906Z,2.21
2023-12-09T08:11:04.286Z,2.25
2023-12-09T08:13:30.909Z,2.26
2023-12-09T08:15:57.499Z,2.32
2023-12-09T08:18:24.511Z,2.33
2023-12-09T08:20:51.170Z,2.35
2023-12-09T08:23:17.859Z,2.36
2023-12-09T08:25:44.921Z,2.39
2023-12-09T08:28:11.850Z,2.40
2023-12-09T08:30:40.278Z,2.42
2023-12-09T08:33:07.054Z,2.43
2023-12-09T08:35:33.961Z,2.44
2023-12-09T08:38:00.549Z,2.49
2023-12-09T08:40:27.211Z,2.49
2023-12-09T08:42:53.958Z,2.50
2023-12-09T08:45:20.708Z,2.54
2023-12-09T08:47:47.719Z,2.53
2023-12-09T08:52:44.983Z,2.59
2023-12-09T08:55:12.135Z,2.61
2023-12-09T08:57:39.765Z,2.62
2023-12-09T09:00:09.957Z,2.63
2023-12-09T09:02:36.573Z,2.63
2023-12-09T09:05:04.514Z,2.65
2023-12-09T09:07:31.206Z,2.65
2023-12-09T09:09:57.758Z,2.69
2023-12-09T09:12:24.589Z,2.71
2023-12-09T09:14:51.381Z,2.74
2023-12-09T09:17:18.088Z,2.78
2023-12-09T09:19:44.669Z,2.79
2023-12-09T09:22:11.255Z,2.81
2023-12-09T09:24:37.990Z,2.82
2023-12-09T09:27:04.844Z,2.84
2023-12-09T09:29:31.436Z,2.87
2023-12-09T09:31:57.996Z,2.90
2023-12-09T09:34:24.592Z,2.92
2023-12-09T09:36:51.170Z,2.94
2023-12-09T09:39:19.268Z,2.97
2023-12-09T09:42:04.437Z,2.96
2023-12-09T09:44:38.669Z,2.96
2023-12-09T09:47:07.268Z,2.97
2023-12-09T09:49:38.423Z,2.98
2023-12-09T09:52:10.622Z,2.97
2023-12-09T09:54:39.102Z,3.00
2023-12-09T09:57:08.131Z,3.03
2023-12-09T09:59:35.855Z,3.00
2023-12-09T10:02:04.965Z,3.02
2023-12-09T10:04:34.054Z,3.03
2023-12-09T10:07:01.327Z,3.05
2023-12-09T10:09:28.781Z,3.06
2023-12-09T10:11:55.384Z,3.09
2023-12-09T10:14:21.959Z,3.09
2023-12-09T10:16:48.722Z,3.09
2023-12-09T10:19:16.234Z,3.09
2023-12-09T10:21:43.607Z,3.11
2023-12-09T10:24:10.184Z,3.12
2023-12-09T10:26:36.742Z,3.12
2023-12-09T10:29:04.727Z,3.15
2023-12-09T10:31:31.359Z,3.17
2023-12-09T10:33:59.346Z,3.17
2023-12-09T10:36:26.208Z,3.19
2023-12-09T10:38:53.961Z,3.20
2023-12-09T10:41:20.521Z,3.21
2023-12-09T10:43:47.560Z,3.19
2023-12-09T10:46:14.838Z,3.24
2023-12-09T10:48:42.772Z,3.26
2023-12-09T10:51:09.491Z,3.29
2023-12-09T10:53:36.657Z,3.29
2023-12-09T10:56:03.778Z,3.34
2023-12-09T10:58:34.529Z,3.37
2023-12-09T11:01:03.535Z,3.44
2023-12-09T11:03:30.747Z,3.46
2023-12-09T11:06:00.755Z,3.49
2023-12-09T11:08:31.344Z,3.50
2023-12-09T11:10:58.734Z,3.51
2023-12-09T11:13:26.170Z,3.54
2023-12-09T11:16:24.757Z,3.55
2023-12-09T11:18:56.676Z,3.54
2023-12-09T11:21:28.162Z,3.48
2023-12-09T11:23:56.563Z,3.48
2023-12-09T11:26:31.599Z,3.47
2023-12-09T11:29:03.732Z,3.45
2023-12-09T11:31:39.075Z,3.43
2023-12-09T11:34:07.894Z,3.40
2023-12-09T11:36:40.050Z,3.38
2023-12-09T11:39:08.643Z,3.38
2023-12-09T11:41:35.510Z,3.37
2023-12-09T11:44:05.260Z,3.40
2023-12-09T11:46:32.592Z,3.39
2023-12-09T11:49:00.478Z,3.38
2023-12-09T11:51:27.923Z,3.40
2023-12-09T11:53:58.452Z,3.39
2023-12-09T11:56:25.455Z,3.40
2023-12-09T11:58:52.572Z,3.43
2023-12-09T12:01:20.076Z,3.45
2023-12-09T12:03:50.816Z,3.47
2023-12-09T12:06:19.093Z,3.50
2023-12-09T12:08:48.495Z,3.51
2023-12-09T12:11:22.614Z,3.52
2023-12-09T12:13:49.808Z,3.53
2023-12-09T12:16:16.656Z,3.55
2023-12-09T12:18:45.915Z,3.55
2023-12-09T12:21:12.648Z,3.58
2023-12-09T12:23:40.692Z,3.61
2023-12-09T12:26:10.263Z,3.62
2023-12-09T12:28:37.309Z,3.62
2023-12-09T12:31:05.430Z,3.64
2023-12-09T12:33:32.589Z,3.64
2023-12-09T12:36:00.467Z,3.67
2023-12-09T12:38:27.885Z,3.68
2023-12-09T12:40:55.753Z,3.67
2023-12-09T12:43:22.504Z,3.68
2023-12-09T12:45:50.578Z,3.67
2023-12-09T12:48:18.531Z,3.66
2023-12-09T12:50:51.369Z,3.67
2023-12-09T12:53:21.673Z,3.66
2023-12-09T12:55:49.058Z,3.69
2023-12-09T12:58:16.726Z,3.71
2023-12-09T13:00:43.448Z,3.71
2023-12-09T13:03:10.131Z,3.73
2023-12-09T13:05:36.880Z,3.74
2023-12-09T13:08:05.710Z,3.75
2023-12-09T13:10:32.796Z,3.78
2023-12-09T13:12:59.444Z,3.81
2023-12-09T13:15:26.437Z,3.83
2023-12-09T13:17:53.170Z,3.84
2023-12-09T13:20:19.860Z,3.85
2023-12-09T13:22:47.240Z,3.86
2023-12-09T13:25:15.186Z,3.88
2023-12-09T13:27:43.057Z,3.88
2023-12-09T13:30:10.429Z,3.88
2023-12-09T13:32:38.280Z,3.89
2023-12-09T13:35:06.659Z,3.91
2023-12-09T13:37:33.979Z,3.91
2023-12-09T13:40:01.099Z,3.92
2023-12-09T13:42:28.764Z,3.92
2023-12-09T13:44:55.690Z,3.93
2023-12-09T13:47:22.232Z,3.94
2023-12-09T13:49:49.168Z,3.94
2023-12-09T13:52:17.245Z,3.93
2023-12-09T13:54:44.628Z,3.93
2023-12-09T13:57:11.630Z,3.92
2023-12-09T13:59:38.523Z,3.93
2023-12-09T14:02:07.360Z,3.95
2023-12-09T14:04:34.360Z,3.95
2023-12-09T14:07:01.831Z,3.92
2023-12-09T14:09:28.483Z,3.91
2023-12-09T14:11:55.110Z,3.90
2023-12-09T14:14:21.725Z,3.89
2023-12-09T14:16:48.412Z,3.90
2023-12-09T14:19:15.475Z,3.88
2023-12-09T14:21:42.261Z,3.89
2023-12-09T14:24:09.733Z,3.87
2023-12-09T14:26:36.813Z,3.87
2023-12-09T14:29:03.671Z,3.84
2023-12-09T14:31:30.252Z,3.83
2023-12-09T14:33:57.448Z,3.82
2023-12-09T14:36:24.280Z,3.82
2023-12-09T14:38:51.155Z,3.80
2023-12-09T14:41:17.706Z,3.78
2023-12-09T14:43:46.746Z,3.75
2023-12-09T14:46:14.209Z,3.73
2023-12-09T14:48:41.174Z,3.71
2023-12-09T14:51:08.165Z,3.69
2023-12-09T14:53:34.840Z,3.69
2023-12-09T14:56:02.096Z,3.64
2023-12-09T14:58:29.610Z,3.58
2023-12-09T15:00:56.430Z,3.54
2023-12-09T15:03:23.199Z,3.52
2023-12-09T15:05:50.635Z,3.47
2023-12-09T15:08:17.277Z,3.44
2023-12-09T15:10:44.028Z,3.43
2023-12-09T15:13:10.602Z,3.40
2023-12-09T15:15:37.180Z,3.29
2023-12-09T15:18:04.040Z,3.30
2023-12-09T15:20:31.832Z,3.28
2023-12-09T15:22:59.516Z,3.28
2023-12-09T15:25:26.468Z,3.26
2023-12-09T15:27:53.175Z,3.22
2023-12-09T15:30:20.468Z,3.23
2023-12-09T15:32:48.007Z,3.25
2023-12-09T15:35:14.967Z,3.21
2023-12-09T15:37:43.532Z,3.21
2023-12-09T15:40:11.826Z,3.20
2023-12-09T15:42:39.033Z,3.18
2023-12-09T15:45:06.363Z,3.15
2023-12-09T15:47:33.151Z,3.12
2023-12-09T15:49:59.832Z,3.08
2023-12-09T15:52:26.732Z,3.08
2023-12-09T15:54:53.406Z,3.03
2023-12-09T15:57:20.403Z,3.03
2023-12-09T15:59:54.202Z,3.02
2023-12-09T16:02:23.743Z,3.01
2023-12-09T16:04:50.449Z,3.00
2023-12-09T16:07:17.083Z,3.01
2023-12-09T16:09:51.665Z,3.02
2023-12-09T16:12:20.618Z,3.00
2023-12-09T16:14:52.662Z,3.00
2023-12-09T16:17:19.741Z,3.04
2023-12-09T16:19:46.879Z,3.07
2023-12-09T16:22:13.718Z,3.10
2023-12-09T16:24:40.325Z,3.11
2023-12-09T16:27:06.913Z,3.13
2023-12-09T16:29:33.558Z,3.13
2023-12-09T16:32:00.077Z,3.12
2023-12-09T16:34:26.783Z,3.16
2023-12-09T16:36:53.543Z,3.15
2023-12-09T16:39:20.151Z,3.18
2023-12-09T16:41:46.677Z,3.19
2023-12-09T16:44:13.207Z,3.18
2023-12-09T16:46:40.367Z,3.19
2023-12-09T16:49:09.108Z,3.19
2023-12-09T16:51:36.211Z,3.20
2023-12-09T16:54:03.120Z,3.20
2023-12-09T16:56:29.918Z,3.19
2023-12-09T16:58:57.973Z,3.19
2023-12-09T17:01:24.780Z,3.18
2023-12-09T17:03:51.529Z,3.15
2023-12-09T17:06:18.380Z,3.17
2023-12-09T17:08:45.027Z,3.18
2023-12-09T17:11:11.647Z,3.15
2023-12-09T17:13:38.706Z,3.13
2023-12-09T17:16:05.510Z,3.12
2023-12-09T17:18:32.390Z,3.13
2023-12-09T17:20:59.160Z,3.14
2023-12-09T17:23:25.858Z,3.12
2023-12-09T17:25:52.600Z,3.12
2023-12-09T17:28:20.003Z,3.16
2023-12-09T17:30:47.937Z,3.16
2023-12-09T17:33:14.676Z,3.18
2023-12-09T17:35:41.358Z,3.17
2023-12-09T17:38:07.988Z,3.17
2023-12-09T17:40:34.714Z,3.16
2023-12-09T17:43:01.315Z,3.16
2023-12-09T17:45:27.940Z,3.17
2023-12-09T17:47:54.625Z,3.20
2023-12-09T17:50:22.574Z,3.17
2023-12-09T17:52:49.294Z,3.18
2023-12-09T17:55:16.127Z,3.17
2023-12-09T17:57:42.872Z,3.13
2023-12-09T18:00:11.432Z,3.13
2023-12-09T18:02:38.672Z,3.12
2023-12-09T18:05:05.769Z,3.11
2023-12-09T18:07:32.505Z,3.09
2023-12-09T18:09:59.188Z,3.09
2023-12-09T18:12:26.338Z,3.10
2023-12-09T18:14:53.150Z,3.11
2023-12-09T18:17:20.033Z,3.10
2023-12-09T18:19:47.778Z,3.10
2023-12-09T18:22:14.566Z,3.11
2023-12-09T18:24:41.466Z,3.10
2023-12-09T18:27:08.353Z,3.08
2023-12-09T18:29:35.012Z,3.09
2023-12-09T18:32:01.652Z,3.08
2023-12-09T18:34:28.296Z,3.03
2023-12-09T18:36:55.218Z,3.02
2023-12-09T18:39:22.546Z,2.98
2023-12-09T18:41:49.200Z,2.96
2023-12-09T18:44:16.387Z,2.93
2023-12-09T18:46:43.075Z,2.92
2023-12-09T18:49:10.938Z,2.82
2023-12-09T18:51:37.785Z,2.89
2023-12-09T18:54:04.547Z,2.85
2023-12-09T18:56:31.442Z,2.87
2023-12-09T18:58:58.009Z,2.85
2023-12-09T19:01:24.697Z,2.89
2023-12-09T19:03:51.353Z,2.93
2023-12-09T19:06:18.536Z,2.93
2023-12-09T19:08:45.182Z,2.94
2023-12-09T19:11:11.741Z,2.96
2023-12-09T19:13:38.354Z,2.97
2023-12-09T19:16:05.362Z,2.99
2023-12-09T19:18:32.250Z,2.98
2023-12-09T19:20:59.108Z,2.99
2023-12-09T19:23:25.683Z,2.99
2023-12-09T19:25:52.496Z,3.00
2023-12-09T19:28:19.045Z,3.05
2023-12-09T19:30:45.614Z,3.02
2023-12-09T19:33:12.452Z,3.04
2023-12-09T19:35:39.122Z,3.05
2023-12-09T19:38:05.734Z,3.07
2023-12-09T19:40:32.326Z,3.06
2023-12-09T19:42:59.013Z,3.03
2023-12-09T19:45:27.106Z,3.04
2023-12-09T19:47:56.334Z,3.03
2023-12-09T19:50:24.989Z,3.05
2023-12-09T19:52:52.062Z,3.00
2023-12-09T19:55:18.674Z,3.10
2023-12-09T19:57:45.633Z,3.05
2023-12-09T20:00:15.796Z,3.07
2023-12-09T20:02:45.273Z,3.11
2023-12-09T20:05:12.148Z,3.14
2023-12-09T20:07:38.815Z,3.11
2023-12-09T20:10:06.037Z,3.11
2023-12-09T20:12:32.692Z,3.06
2023-12-09T20:14:59.531Z,3.09
2023-12-09T20:17:26.197Z,3.10
2023-12-09T20:19:52.912Z,3.08
2023-12-09T20:22:21.189Z,3.08
2023-12-09T20:24:47.964Z,3.06
2023-12-09T20:27:14.822Z,3.07
2023-12-09T20:29:41.656Z,3.07
2023-12-09T20:32:08.210Z,3.07
2023-12-09T20:34:34.916Z,3.08
2023-12-09T20:37:02.363Z,3.07
2023-12-09T20:39:28.935Z,3.06
2023-12-09T20:41:55.622Z,3.05
2023-12-09T20:44:22.174Z,3.05
2023-12-09T20:46:48.720Z,3.03
2023-12-09T20:49:18.002Z,3.05
2023-12-09T20:51:46.036Z,3.07
2023-12-09T20:54:13.152Z,3.08
2023-12-09T20:56:39.826Z,3.05
2023-12-09T20:59:09.353Z,3.08
2023-12-09T21:01:50.164Z,3.06
2023-12-09T21:04:17.603Z,3.08
2023-12-09T21:06:44.636Z,3.07
2023-12-09T21:09:11.308Z,3.03
2023-12-09T21:11:39.193Z,3.04
2023-12-09T21:14:06.808Z,3.06
2023-12-09T21:16:34.552Z,3.05
2023-12-09T21:19:03.051Z,3.04
2023-12-09T21:21:32.814Z,3.03
2023-12-09T21:23:59.485Z,3.05
2023-12-09T21:26:26.204Z,3.03
2023-12-09T21:28:52.777Z,3.02
2023-12-09T21:31:19.527Z,3.00
2023-12-09T21:33:46.439Z,2.98
2023-12-09T21:36:16.592Z,2.99
2023-12-09T21:38:44.519Z,2.98
2023-12-09T21:41:21.907Z,2.97
2023-12-09T21:43:51.958Z,2.97
2023-12-09T21:46:23.374Z,2.98
2023-12-09T21:48:51.476Z,2.96
2023-12-09T21:51:19.488Z,2.99
2023-12-09T21:53:46.252Z,3.03
2023-12-09T21:56:23.395Z,3.02
2023-12-09T21:58:50.701Z,3.00
2023-12-09T22:01:18.427Z,3.03
2023-12-09T22:03:45.334Z,2.98
2023-12-09T22:06:15.616Z,3.05
2023-12-09T22:08:43.268Z,3.06
2023-12-09T22:11:11.267Z,3.06
2023-12-09T22:13:38.871Z,3.06
2023-12-09T22:16:05.920Z,3.03
2023-12-09T22:18:32.584Z,3.00
2023-12-09T22:21:01.073Z,2.97
2023-12-09T22:23:27.684Z,2.98
2023-12-09T22:25:54.260Z,2.95
2023-12-09T22:28:22.122Z,2.96
2023-12-09T22:30:48.732Z,2.96
2023-12-09T22:33:15.598Z,2.96
2023-12-09T22:35:42.233Z,2.96
2023-12-09T22:38:08.786Z,2.96
2023-12-09T22:40:35.532Z,2.98
2023-12-09T22:43:02.218Z,3.01
2023-12-09T22:45:29.027Z,2.99
2023-12-09T22:47:55.877Z,3.02
2023-12-09T22:50:22.767Z,3.07
2023-12-09T22:52:49.293Z,3.11
2023-12-09T22:55:15.914Z,3.11
2023-12-09T22:57:42.725Z,3.15
2023-12-09T23:00:19.064Z,3.15
2023-12-09T23:02:45.681Z,3.17
2023-12-09T23:05:12.267Z,3.19
2023-12-09T23:07:38.844Z,3.23
2023-12-09T23:10:06.141Z,3.23
2023-12-09T23:12:32.862Z,3.25
2023-12-09T23:14:59.486Z,3.28
2023-12-09T23:17:26.080Z,3.28
2023-12-09T23:19:52.754Z,3.29
2023-12-09T23:22:19.344Z,3.30
2023-12-09T23:24:45.860Z,3.33
2023-12-09T23:27:12.481Z,3.33
2023-12-09T23:29:39.097Z,3.29
2023-12-09T23:32:05.901Z,3.29
2023-12-09T23:34:32.582Z,3.35
2023-12-09T23:36:59.285Z,3.35
2023-12-09T23:39:25.891Z,3.33
2023-12-09T23:41:52.616Z,3.33
2023-12-09T23:44:19.237Z,3.34
2023-12-09T23:46:45.804Z,3.37
2023-12-09T23:49:12.407Z,3.37
2023-12-09T23:51:39.128Z,3.36
2023-12-09T23:54:05.856Z,3.37
2023-12-09T23:56:32.426Z,3.37
2023-12-09T23:58:59.130Z,3.32
